Time;durP1;ratioP1;P1;durP2;ratioP2;P2;SDS_P1;SDS_P2;PMS_P1;PMS_P2;Temp;Humidity;BMP_temperature;BMP_pressure;BME280_temperature;BME280_humidity;BME280_pressure;Samples;Min_cycle;Max_cycle;Signal;HPM_P1;HPM_P2
2023/03/27 00:00:33;;;;;;;;;;;;;;;17.41;67.03;99981.84;7398003;19;1059;-46
2023/03/27 00:03:09;;;;;;;;;;;;;;;17.42;67.42;99975.50;7405919;19;1586;-46
2023/03/27 00:05:39;;;;;;;;;;;;;;;17.46;67.28;99981.41;7405952;19;1139;-46
2023/03/27 00:08:08;;;;;;;;;;;;;;;17.38;67.43;99955.41;7404299;19;1856;-46
2023/03/27 00:10:37;;;;;;;;;;;;;;;17.41;67.52;99964.97;7405677;19;1939;-46
2023/03/27 00:13:07;;;;;;;;;;;;;;;17.40;66.96;99953.41;7405541;19;1853;-46
2023/03/27 00:15:38;;;;;;;;;;;;;;;17.40;67.36;99964.09;7405080;19;1699;-46
2023/03/27 00:18:07;;;;;;;;;;;;;;;17.38;67.24;99955.41;7406160;19;1582;-46
2023/03/27 00:20:36;;;;;;;;;;;;;;;17.40;66.85;99953.41;7406746;19;1020;-46
2023/03/27 00:23:07;;;;;;;;;;;;;;;17.39;67.39;99957.09;7406118;19;1166;-46
2023/03/27 00:25:36;;;;;;;;;;;;;;;17.38;67.61;99950.06;7404579;19;1607;-46
2023/03/27 00:28:08;;;;;;;;;;;;;;;17.41;67.47;99955.13;7404533;19;1910;-46
2023/03/27 00:30:40;;;;;;;;;;;;;;;17.37;66.87;99953.72;7406824;19;1579;-46
2023/03/27 00:33:09;;;;;;;;;;;;;;;17.35;66.69;99930.78;7405491;19;1828;-46
2023/03/27 00:35:40;;;;;;;;;;;;;;;17.36;67.17;99936.00;7407004;19;1182;-45
2023/03/27 00:38:08;;;;;;;;;;;;;;;17.37;66.85;99934.16;7404554;19;1201;-46
2023/03/27 00:40:38;;;;;;;;;;;;;;;17.36;67.23;99922.63;7406702;19;959;-46
2023/03/27 00:43:20;;;;;;;;;;;;;;;17.36;67.22;99930.66;7405249;19;1478;-46
2023/03/27 00:45:53;;;;;;;;;;;;;;;17.32;66.78;99907.03;7405583;19;1483;-46
2023/03/27 00:48:30;;;;;;;;;;;;;;;17.36;67.09;99925.31;7401518;19;1845;-46
2023/03/27 00:50:59;;;;;;;;;;;;;;;17.35;67.05;99934.31;7405958;19;1745;-46
2023/03/27 00:53:30;;;;;;;;;;;;;;;17.37;67.29;99932.34;7405675;19;1808;-46
2023/03/27 00:56:00;;;;;;;;;;;;;;;17.33;66.76;99920.25;7405767;19;1410;-46
2023/03/27 00:58:30;;;;;;;;;;;;;;;17.35;67.40;99922.75;7406291;19;1621;-46
2023/03/27 01:01:01;;;;;;;;;;;;;;;17.32;67.01;99913.22;7405375;19;1745;-46
2023/03/27 01:03:37;;;;;;;;;;;;;;;17.34;67.08;99921.09;7402511;19;1251;-46
2023/03/27 01:06:05;;;;;;;;;;;;;;;17.32;66.87;99907.03;7405124;19;1573;-46
2023/03/27 01:08:36;;;;;;;;;;;;;;;17.30;67.27;99900.00;7402786;19;2148;-46
2023/03/27 01:11:12;;;;;;;;;;;;;;;17.33;67.11;99908.72;7405142;19;1131;-46
2023/03/27 01:13:56;;;;;;;;;;;;;;;17.30;67.24;99897.31;7402151;19;1137;-46
2023/03/27 01:16:30;;;;;;;;;;;;;;;17.30;67.10;99896.50;7405488;19;1559;-46
2023/03/27 01:19:06;;;;;;;;;;;;;;;17.28;66.68;99879.75;7403876;19;1132;-46
2023/03/27 01:21:54;;;;;;;;;;;;;;;17.30;66.81;99872.44;7404030;19;1387;-46
2023/03/27 01:24:40;;;;;;;;;;;;;;;17.28;67.02;99861.91;7404414;19;1019;-46
2023/03/27 01:27:15;;;;;;;;;;;;;;;17.30;66.86;99864.44;7403149;19;1857;-46
2023/03/27 01:30:01;;;;;;;;;;;;;;;17.31;66.80;99866.13;7404925;19;1609;-46
2023/03/27 01:32:46;;;;;;;;;;;;;;;17.29;66.77;99862.75;7404300;19;1975;-46
2023/03/27 01:35:34;;;;;;;;;;;;;;;17.30;66.92;99867.94;7403422;19;1877;-46
2023/03/27 01:38:24;;;;;;;;;;;;;;;17.26;66.80;99858.53;7404840;19;1710;-46
2023/03/27 01:41:00;;;;;;;;;;;;;;;17.26;67.07;99844.34;7402173;19;1552;-46
2023/03/27 01:43:35;;;;;;;;;;;;;;;17.32;66.56;99853.59;7404347;19;1600;-46
2023/03/27 01:46:06;;;;;;;;;;;;;;;17.29;66.88;99854.75;7401728;19;1033;-46
2023/03/27 01:48:38;;;;;;;;;;;;;;;17.30;67.17;99846.56;7400786;19;1830;-46
2023/03/27 01:51:12;;;;;;;;;;;;;;;17.96;65.77;99830.47;7404586;19;1010;-46
2023/03/27 01:53:45;;;;;;;;;;;;;;;18.67;64.22;99826.94;7404453;19;1877;-46
2023/03/27 01:56:24;;;;;;;;;;;;;;;19.69;61.20;99814.56;7404174;19;1760;-46
2023/03/27 01:58:55;;;;;;;;;;;;;;;20.16;60.15;99797.09;7403836;19;963;-46
2023/03/27 02:01:26;;;;;;;;;;;;;;;20.29;59.74;99794.75;7401549;19;1473;-46
2023/03/27 02:03:58;;;;;;;;;;;;;;;20.01;60.60;99780.81;7402104;19;1456;-46
2023/03/27 02:06:29;;;;;;;;;;;;;;;20.13;60.42;99792.88;7399662;19;1328;-46
2023/03/27 02:09:00;;;;;;;;;;;;;;;20.17;60.61;99804.97;7402340;19;1038;-46
2023/03/27 02:11:34;;;;;;;;;;;;;;;20.09;60.72;99794.22;7402687;19;1167;-46
2023/03/27 02:14:05;;;;;;;;;;;;;;;20.11;60.87;99796.75;7402693;19;1503;-46
2023/03/27 02:16:36;;;;;;;;;;;;;;;20.15;61.02;99793.56;7403498;19;1022;-46
2023/03/27 02:19:10;;;;;;;;;;;;;;;20.12;61.19;99777.81;7401470;19;1507;-46
2023/03/27 02:21:38;;;;;;;;;;;;;;;20.12;60.71;99777.81;7402657;19;1340;-46
2023/03/27 02:24:08;;;;;;;;;;;;;;;20.22;60.90;99789.22;7401161;19;1161;-46
2023/03/27 02:26:45;;;;;;;;;;;;;;;20.25;60.55;99788.88;7402777;19;999;-46
2023/03/27 02:29:25;;;;;;;;;;;;;;;20.22;60.84;99786.53;7401101;19;1122;-46
2023/03/27 02:32:00;;;;;;;;;;;;;;;20.24;60.59;99770.25;7402912;19;1035;-46
2023/03/27 02:34:40;;;;;;;;;;;;;;;20.29;60.87;99772.44;7402996;19;1740;-46
2023/03/27 02:37:16;;;;;;;;;;;;;;;20.40;60.66;99753.31;7402746;19;1829;-46
2023/03/27 02:39:51;;;;;;;;;;;;;;;20.44;60.14;99760.00;7399255;19;1316;-46
2023/03/27 02:42:24;;;;;;;;;;;;;;;20.46;60.54;99758.81;7402064;19;1787;-46
2023/03/27 02:44:57;;;;;;;;;;;;;;;20.46;60.23;99758.00;7402170;19;1642;-46
2023/03/27 02:47:28;;;;;;;;;;;;;;;20.49;60.66;99770.22;7401647;19;1865;-46
2023/03/27 02:50:00;;;;;;;;;;;;;;;20.51;60.40;99752.94;7399969;19;1350;-46
2023/03/27 02:52:32;;;;;;;;;;;;;;;20.46;60.55;99752.63;7401784;19;1140;-46
2023/03/27 02:55:05;;;;;;;;;;;;;;;20.41;60.37;99750.44;7402857;19;2549;-46
2023/03/27 02:57:51;;;;;;;;;;;;;;;20.46;60.49;99736.50;7401743;19;1649;-46
2023/03/27 03:00:25;;;;;;;;;;;;;;;20.40;60.53;99745.25;7401366;19;1004;-46
2023/03/27 03:02:57;;;;;;;;;;;;;;;19.70;62.31;99735.81;7401788;19;1751;-46
2023/03/27 03:05:28;;;;;;;;;;;;;;;19.19;63.11;99735.81;7401117;19;2011;-46
2023/03/27 03:07:56;;;;;;;;;;;;;;;18.97;64.50;99731.88;7399457;19;1854;-46
2023/03/27 03:10:26;;;;;;;;;;;;;;;18.72;65.45;99735.41;7400900;19;1145;-46
2023/03/27 03:12:57;;;;;;;;;;;;;;;18.57;65.65;99732.47;6886922;19;9999624;-46
2023/03/27 03:15:27;;;;;;;;;;;;;;;18.46;65.63;99731.75;7398886;19;1793;-46
2023/03/27 03:17:56;;;;;;;;;;;;;;;18.38;65.75;99728.16;7400095;19;1515;-46
2023/03/27 03:20:28;;;;;;;;;;;;;;;18.72;65.00;99708.63;7399010;19;1910;-46
2023/03/27 03:22:57;;;;;;;;;;;;;;;19.41;63.09;99698.69;7399806;19;1772;-46
2023/03/27 03:25:29;;;;;;;;;;;;;;;19.54;62.52;99692.88;7400054;19;1568;-45
2023/03/27 03:27:59;;;;;;;;;;;;;;;19.12;63.75;99699.09;7397925;19;1842;-46
2023/03/27 03:30:32;;;;;;;;;;;;;;;18.73;64.63;99713.81;7398902;19;1602;-46
2023/03/27 03:33:01;;;;;;;;;;;;;;;18.53;65.11;99691.78;7399241;19;1459;-46
2023/03/27 03:35:29;;;;;;;;;;;;;;;18.40;65.73;99681.53;7400131;19;1887;-46
2023/03/27 03:37:59;;;;;;;;;;;;;;;19.12;64.13;99693.75;7405624;19;1164;-46
2023/03/27 03:40:28;;;;;;;;;;;;;;;19.58;62.39;99665.56;7404523;19;1129;-46
2023/03/27 03:42:57;;;;;;;;;;;;;;;19.63;62.23;99679.28;7406446;19;1844;-46
2023/03/27 03:45:25;;;;;;;;;;;;;;;19.22;63.18;99654.28;7406469;19;1266;-46
2023/03/27 03:47:57;;;;;;;;;;;;;;;18.85;64.38;99663.53;7405507;19;1857;-46
2023/03/27 03:50:26;;;;;;;;;;;;;;;18.53;65.12;99651.63;7406685;19;1631;-45
2023/03/27 03:52:55;;;;;;;;;;;;;;;18.43;65.40;99645.56;7405935;19;1610;-46
2023/03/27 03:55:26;;;;;;;;;;;;;;;18.98;64.14;99637.13;7406217;19;1233;-46
2023/03/27 03:57:57;;;;;;;;;;;;;;;19.50;62.39;99646.78;7406113;19;1520;-46
2023/03/27 04:00:27;;;;;;;;;;;;;;;19.40;62.44;99638.88;7405133;19;1633;-45
2023/03/27 04:03:04;;;;;;;;;;;;;;;19.00;63.80;99626.22;7405556;19;1988;-46
2023/03/27 04:05:35;;;;;;;;;;;;;;;18.61;64.82;99627.56;7405098;19;1064;-46
2023/03/27 04:08:06;;;;;;;;;;;;;;;18.46;65.00;99621.13;7404921;19;1865;-46
2023/03/27 04:10:35;;;;;;;;;;;;;;;18.63;64.95;99617.53;7406840;19;1542;-46
2023/03/27 04:13:03;;;;;;;;;;;;;;;19.43;62.77;99600.16;7406189;19;1612;-46
2023/03/27 04:15:32;;;;;;;;;;;;;;;19.67;62.44;99607.38;7405121;19;1816;-45
2023/03/27 04:18:04;;;;;;;;;;;;;;;19.52;62.39;99585.78;7405844;19;1031;-46
2023/03/27 04:20:33;;;;;;;;;;;;;;;19.13;63.67;99617.72;7405963;19;1470;-45
2023/03/27 04:23:03;;;;;;;;;;;;;;;18.77;64.51;99612.56;7405385;19;1260;-45
2023/03/27 04:25:31;;;;;;;;;;;;;;;18.48;65.35;99597.72;7404532;19;2014;-45
2023/03/27 04:28:01;;;;;;;;;;;;;;;18.50;65.81;99593.03;7405491;19;1861;-45
2023/03/27 04:30:29;;;;;;;;;;;;;;;19.11;63.57;99584.91;7403911;19;1147;-45
2023/03/27 04:32:59;;;;;;;;;;;;;;;19.55;63.19;99592.63;7406286;19;1623;-45
2023/03/27 04:35:32;;;;;;;;;;;;;;;19.43;62.54;99584.91;7406803;19;1081;-45
2023/03/27 04:38:01;;;;;;;;;;;;;;;19.10;64.01;99583.22;7405971;19;1946;-46
2023/03/27 04:40:34;;;;;;;;;;;;;;;18.90;64.81;99588.88;7405201;19;1397;-45
2023/03/27 04:43:04;;;;;;;;;;;;;;;18.65;65.22;99575.38;7403589;19;1590;-45
2023/03/27 04:45:32;;;;;;;;;;;;;;;18.50;64.88;99593.03;7405011;19;1380;-45
2023/03/27 04:48:00;;;;;;;;;;;;;;;18.98;63.98;99580.88;7402160;19;1867;-45
2023/03/27 04:50:31;;;;;;;;;;;;;;;19.61;62.10;99562.47;7403835;19;1802;-46
2023/03/27 04:53:00;;;;;;;;;;;;;;;19.58;61.98;99570.88;7404713;19;1657;-46
2023/03/27 04:55:29;;;;;;;;;;;;;;;19.67;61.87;99564.47;7404372;19;1169;-45
2023/03/27 04:57:58;;;;;;;;;;;;;;;19.19;63.07;99550.06;7404768;19;1761;-46
2023/03/27 05:00:28;;;;;;;;;;;;;;;18.75;64.10;99555.66;7406277;19;1023;-45
2023/03/27 05:02:56;;;;;;;;;;;;;;;18.49;64.53;99549.38;7403159;19;1925;-46
2023/03/27 05:05:27;;;;;;;;;;;;;;;18.36;64.84;99548.16;7404205;19;1515;-45
2023/03/27 05:07:58;;;;;;;;;;;;;;;19.02;63.26;99528.63;7402713;19;1854;-46
2023/03/27 05:10:32;;;;;;;;;;;;;;;19.38;62.11;99544.38;7401922;19;1433;-46
2023/03/27 05:13:01;;;;;;;;;;;;;;;19.53;61.92;99546.38;7402523;19;1526;-46
2023/03/27 05:15:32;;;;;;;;;;;;;;;19.23;62.43;99541.53;7403606;19;1044;-46
2023/03/27 05:18:07;;;;;;;;;;;;;;;18.80;63.40;99542.63;7404402;19;1208;-45
2023/03/27 05:20:36;;;;;;;;;;;;;;;18.51;64.08;99511.75;7402748;19;1563;-45
2023/03/27 05:23:08;;;;;;;;;;;;;;;18.49;64.65;99524.44;7403493;19;1145;-46
2023/03/27 05:25:38;;;;;;;;;;;;;;;18.98;62.94;99518.38;7402676;19;1303;-45
2023/03/27 05:28:06;;;;;;;;;;;;;;;19.26;62.88;99509.03;7403599;19;1854;-46
2023/03/27 05:30:41;;;;;;;;;;;;;;;19.46;62.02;99514.88;7402287;19;1406;-46
2023/03/27 05:33:12;;;;;;;;;;;;;;;19.16;63.36;99512.88;7404347;19;1031;-46
2023/03/27 05:35:41;;;;;;;;;;;;;;;18.84;64.25;99514.50;7404371;19;1012;-46
2023/03/27 05:38:13;;;;;;;;;;;;;;;18.67;64.18;99494.88;7402994;19;1152;-46
2023/03/27 05:40:43;;;;;;;;;;;;;;;18.64;64.66;99505.91;7403589;19;1599;-46
2023/03/27 05:43:11;;;;;;;;;;;;;;;19.03;63.79;99482.06;7402778;19;1038;-46
2023/03/27 05:45:40;;;;;;;;;;;;;;;19.36;63.04;99479.38;7402658;19;1605;-46
2023/03/27 05:48:08;;;;;;;;;;;;;;;19.60;62.42;99478.50;7402883;19;1853;-46
2023/03/27 05:50:44;;;;;;;;;;;;;;;19.30;63.03;99487.25;7402999;19;1577;-46
2023/03/27 05:53:17;;;;;;;;;;;;;;;18.96;63.78;99464.13;7403811;19;1548;-46
2023/03/27 05:55:45;;;;;;;;;;;;;;;18.72;64.46;99457.75;7403244;19;1243;-46
2023/03/27 05:58:15;;;;;;;;;;;;;;;18.67;64.76;99455.53;7401819;19;1289;-46
2023/03/27 06:00:46;;;;;;;;;;;;;;;18.90;63.54;99449.59;7402004;19;1138;-46
2023/03/27 06:03:16;;;;;;;;;;;;;;;19.27;63.04;99459.78;7401198;19;1452;-46
2023/03/27 06:05:44;;;;;;;;;;;;;;;19.43;62.39;99453.56;7403352;19;1932;-46
2023/03/27 06:08:13;;;;;;;;;;;;;;;19.24;62.78;99459.28;7401507;19;1872;-46
2023/03/27 06:10:44;;;;;;;;;;;;;;;18.92;63.42;99447.59;7402260;19;1037;-46
2023/03/27 06:13:13;;;;;;;;;;;;;;;18.73;63.43;99437.97;7402912;19;1668;-46
2023/03/27 06:15:42;;;;;;;;;;;;;;;18.62;63.87;99438.28;7401461;19;1517;-46
2023/03/27 06:18:11;;;;;;;;;;;;;;;18.86;63.07;99443.72;7399914;19;1444;-46
2023/03/27 06:20:41;;;;;;;;;;;;;;;19.16;61.57;99422.63;7400305;19;1303;-46
2023/03/27 06:23:15;;;;;;;;;;;;;;;19.55;60.82;99427.22;7401492;19;1459;-46
2023/03/27 06:25:47;;;;;;;;;;;;;;;19.31;60.88;99420.06;7400872;19;943;-46
2023/03/27 06:28:21;;;;;;;;;;;;;;;19.07;61.44;99403.00;7401650;19;1861;-48
2023/03/27 06:30:50;;;;;;;;;;;;;;;18.88;62.42;99390.81;7400504;19;1592;-46
2023/03/27 06:33:18;;;;;;;;;;;;;;;18.89;62.73;99399.69;7400615;19;1412;-46
2023/03/27 06:35:50;;;;;;;;;;;;;;;18.88;62.40;99387.31;7393402;19;1410;-46
2023/03/27 06:38:19;;;;;;;;;;;;;;;19.20;61.31;99366.81;7397171;19;1923;-46
2023/03/27 06:40:50;;;;;;;;;;;;;;;19.55;60.62;99372.75;7400384;19;1217;-46
2023/03/27 06:46:01;;;;;;;;;;;;;;;19.34;61.49;99367.97;7393982;19;1981;-46
2023/03/27 06:48:30;;;;;;;;;;;;;;;19.13;61.77;99357.81;7401209;19;1849;-46
2023/03/27 06:50:58;;;;;;;;;;;;;;;18.93;62.35;99358.16;7399502;19;1841;-46
2023/03/27 06:53:28;;;;;;;;;;;;;;;18.95;62.41;99358.00;7399769;19;1178;-46
2023/03/27 06:56:01;;;;;;;;;;;;;;;19.26;61.83;99344.72;7400881;19;1632;-46
2023/03/27 06:58:29;;;;;;;;;;;;;;;19.67;60.72;99307.00;7400226;19;1534;-45
2023/03/27 07:00:57;;;;;;;;;;;;;;;19.80;60.31;99330.63;7401165;19;1791;-46
2023/03/27 07:03:26;;;;;;;;;;;;;;;19.55;61.34;99324.50;7400003;19;1044;-46
2023/03/27 07:05:54;;;;;;;;;;;;;;;19.36;61.63;99299.78;7401106;19;1874;-46
2023/03/27 07:08:23;;;;;;;;;;;;;;;19.29;61.74;99298.78;7400742;19;1943;-46
2023/03/27 07:10:53;;;;;;;;;;;;;;;19.25;62.34;99292.09;7397646;19;1838;-46
2023/03/27 07:13:24;;;;;;;;;;;;;;;19.20;62.46;99299.81;7399274;19;1397;-46
2023/03/27 07:15:54;;;;;;;;;;;;;;;19.44;61.96;99288.19;7399591;19;1229;-45
2023/03/27 07:18:23;;;;;;;;;;;;;;;19.68;61.25;99274.66;7397813;19;1320;-45
2023/03/27 07:20:52;;;;;;;;;;;;;;;19.66;61.59;99270.50;7399967;19;1228;-46
2023/03/27 07:23:22;;;;;;;;;;;;;;;19.37;62.02;99269.28;7400323;19;1233;-46
2023/03/27 07:25:51;;;;;;;;;;;;;;;19.22;62.38;99271.03;7400239;19;1101;-45
2023/03/27 07:28:19;;;;;;;;;;;;;;;19.11;62.98;99269.53;7399754;19;1872;-43
2023/03/27 07:30:53;;;;;;;;;;;;;;;19.02;63.02;99254.50;7398242;19;1309;-42
2023/03/27 07:33:23;;;;;;;;;;;;;;;19.00;63.22;99268.09;7398976;19;1553;-43
2023/03/27 07:35:51;;;;;;;;;;;;;;;18.95;62.91;99243.66;7400185;19;1302;-43
2023/03/27 07:38:19;;;;;;;;;;;;;;;18.93;63.09;99244.84;7395312;19;1134;-43
2023/03/27 07:40:49;;;;;;;;;;;;;;;18.85;63.63;99256.41;7400845;19;1620;-43
2023/03/27 07:43:17;;;;;;;;;;;;;;;18.80;63.79;99231.97;7395710;19;1074;-43
2023/03/27 07:45:45;;;;;;;;;;;;;;;18.80;64.09;99245.34;7398296;19;1869;-43
2023/03/27 07:48:17;;;;;;;;;;;;;;;18.78;63.87;99252.69;7395751;19;952;-43
2023/03/27 07:50:46;;;;;;;;;;;;;;;18.73;64.71;99228.28;7394038;19;1842;-45
2023/03/27 07:53:14;;;;;;;;;;;;;;;18.72;64.26;99240.00;7395664;19;1066;-45
2023/03/27 07:55:43;;;;;;;;;;;;;;;18.66;64.39;99231.66;7395680;19;1847;-45
2023/03/27 07:58:12;;;;;;;;;;;;;;;18.64;64.47;99212.25;7396094;19;972;-46
2023/03/27 08:00:42;;;;;;;;;;;;;;;18.67;64.47;99225.28;7395916;19;1074;-45
2023/03/27 08:03:12;;;;;;;;;;;;;;;18.65;64.54;99224.59;7395486;19;1012;-45
2023/03/27 08:05:43;;;;;;;;;;;;;;;18.65;64.34;99211.22;7395882;19;979;-45
2023/03/27 08:08:12;;;;;;;;;;;;;;;18.68;64.98;99212.72;7399338;19;1040;-46
2023/03/27 08:10:43;;;;;;;;;;;;;;;18.61;65.02;99209.91;7393768;19;1847;-45
2023/03/27 08:13:11;;;;;;;;;;;;;;;18.59;64.73;99211.06;7395035;19;1126;-45
2023/03/27 08:15:40;;;;;;;;;;;;;;;18.60;64.66;99202.88;7394566;19;1051;-45
2023/03/27 08:18:10;;;;;;;;;;;;;;;18.64;64.47;99204.22;7395325;19;954;-46
2023/03/27 08:20:38;;;;;;;;;;;;;;;18.62;65.01;99200.88;7395176;19;2226;-45
2023/03/27 08:23:10;;;;;;;;;;;;;;;18.63;64.52;99185.63;7398340;19;1019;-45
2023/03/27 08:25:41;;;;;;;;;;;;;;;18.57;64.71;99160.38;7404866;19;1152;-45
2023/03/27 08:28:09;;;;;;;;;;;;;;;18.58;64.23;99162.06;7402005;19;1070;-45
2023/03/27 08:30:37;;;;;;;;;;;;;;;18.56;64.46;99166.75;7400802;19;1850;-45
2023/03/27 08:33:08;;;;;;;;;;;;;;;18.53;64.54;99167.09;7402322;19;1069;-45
2023/03/27 08:35:36;;;;;;;;;;;;;;;18.56;64.92;99166.75;7402157;19;1012;-46
2023/03/27 08:38:05;;;;;;;;;;;;;;;18.52;64.94;99165.41;7405521;19;1051;-45
2023/03/27 08:40:38;;;;;;;;;;;;;;;18.56;64.59;99163.22;7406124;19;1349;-45
2023/03/27 08:43:08;;;;;;;;;;;;;;;18.53;64.65;99142.16;7404846;19;1891;-45
2023/03/27 08:45:43;;;;;;;;;;;;;;;18.59;63.81;99136.94;7402483;19;1416;-45
2023/03/27 08:48:14;;;;;;;;;;;;;;;18.64;64.28;99133.75;7399885;19;1596;-45
2023/03/27 08:50:43;;;;;;;;;;;;;;;18.62;64.79;99130.41;7401158;19;1864;-45
2023/03/27 08:53:19;;;;;;;;;;;;;;;18.60;64.89;99135.94;7400494;19;1772;-43
2023/03/27 08:55:50;;;;;;;;;;;;;;;18.57;64.59;99119.41;7404531;19;1116;-43
2023/03/27 08:58:20;;;;;;;;;;;;;;;18.59;64.55;99122.72;7404087;19;952;-43
2023/03/27 09:00:51;;;;;;;;;;;;;;;18.60;64.13;99117.22;7404672;19;1546;-43
2023/03/27 09:03:23;;;;;;;;;;;;;;;18.61;64.35;99121.53;7404961;19;1183;-43
2023/03/27 09:05:55;;;;;;;;;;;;;;;18.66;63.94;99134.41;7400657;19;911;-43
2023/03/27 09:08:30;;;;;;;;;;;;;;;18.63;64.44;99121.38;7405009;19;1818;-43
2023/03/27 09:11:04;;;;;;;;;;;;;;;18.64;64.61;99113.19;7401840;19;1928;-43
2023/03/27 09:13:44;;;;;;;;;;;;;;;18.64;64.87;99115.84;7402149;19;2071;-43
2023/03/27 09:16:17;;;;;;;;;;;;;;;18.75;64.10;99119.16;7402124;19;1526;-44
2023/03/27 09:18:50;;;;;;;;;;;;;;;18.81;63.86;99116.63;7402698;19;1782;-43
2023/03/27 09:21:21;;;;;;;;;;;;;;;18.85;64.07;99114.44;7401450;19;1096;-43
2023/03/27 09:23:52;;;;;;;;;;;;;;;18.82;63.89;99109.44;7400898;19;1065;-43
2023/03/27 09:26:29;;;;;;;;;;;;;;;18.87;63.44;99120.47;7404312;19;1628;-43
2023/03/27 09:29:01;;;;;;;;;;;;;;;18.88;64.14;99111.44;7403756;19;1144;-43
2023/03/27 09:31:31;;;;;;;;;;;;;;;18.89;63.71;99115.78;7401976;19;1895;-43
2023/03/27 09:34:02;;;;;;;;;;;;;;;18.88;63.95;99114.94;7401290;19;1098;-43
2023/03/27 09:36:34;;;;;;;;;;;;;;;18.94;64.32;99102.69;7401868;19;1570;-43
2023/03/27 09:39:06;;;;;;;;;;;;;;;18.85;64.09;99098.38;7400716;19;1596;-43
2023/03/27 09:41:41;;;;;;;;;;;;;;;18.88;63.93;99092.69;7401121;19;2132;-43
2023/03/27 09:44:11;;;;;;;;;;;;;;;18.85;64.01;99083.13;7404359;19;1607;-43
2023/03/27 09:46:44;;;;;;;;;;;;;;;18.84;64.26;99091.34;7402624;19;1415;-43
2023/03/27 09:49:14;;;;;;;;;;;;;;;18.84;64.37;99088.66;7402965;19;1861;-43
2023/03/27 09:51:46;;;;;;;;;;;;;;;18.84;64.27;99075.28;7400973;19;1480;-43
2023/03/27 09:54:16;;;;;;;;;;;;;;;18.83;64.12;99084.34;7402021;19;1706;-44
2023/03/27 09:56:50;;;;;;;;;;;;;;;18.82;64.46;99077.28;7402937;19;1117;-43
2023/03/27 09:59:29;;;;;;;;;;;;;;;18.87;63.91;99058.88;7401411;19;1770;-43
2023/03/27 10:01:58;;;;;;;;;;;;;;;18.85;63.98;99061.72;7403143;19;1646;-43
2023/03/27 10:04:29;;;;;;;;;;;;;;;18.82;63.89;99045.16;7402785;19;1830;-43
2023/03/27 10:07:04;;;;;;;;;;;;;;;18.86;63.77;99043.78;7403661;19;1183;-43
2023/03/27 10:09:34;;;;;;;;;;;;;;;18.79;63.34;99030.28;7400542;19;1847;-43
2023/03/27 10:12:11;;;;;;;;;;;;;;;18.72;63.19;99033.81;7400286;19;2166;-43
2023/03/27 10:14:42;;;;;;;;;;;;;;;18.77;63.56;99026.09;7402454;19;1570;-43
2023/03/27 10:17:16;;;;;;;;;;;;;;;18.73;63.06;99030.13;7401365;19;1780;-43
2023/03/27 10:19:46;;;;;;;;;;;;;;;18.65;62.63;99028.34;7400491;19;1582;-43
2023/03/27 10:22:21;;;;;;;;;;;;;;;18.66;63.76;99038.88;7401955;19;1567;-46
2023/03/27 10:24:49;;;;;;;;;;;;;;;18.65;63.33;99029.16;7402502;19;1651;-43
2023/03/27 10:27:23;;;;;;;;;;;;;;;18.72;62.79;99023.97;7400913;19;1802;-43
2023/03/27 10:29:51;;;;;;;;;;;;;;;18.69;63.03;99014.41;7398203;19;1857;-43
2023/03/27 10:32:20;;;;;;;;;;;;;;;18.74;62.49;99016.56;7400878;19;1812;-43
2023/03/27 10:34:57;;;;;;;;;;;;;;;18.76;62.80;99017.22;7401398;19;1733;-43
2023/03/27 10:37:28;;;;;;;;;;;;;;;18.76;63.08;99006.53;7402255;19;1654;-43
2023/03/27 10:39:58;;;;;;;;;;;;;;;18.77;63.63;99004.66;7396744;19;1924;-43
2023/03/27 10:42:51;;;;;;;;;;;;;;;18.78;63.65;99006.31;7399998;19;1918;-44
2023/03/27 10:45:23;;;;;;;;;;;;;;;18.77;63.78;99004.66;7401140;19;1604;-44
2023/03/27 10:47:56;;;;;;;;;;;;;;;18.74;63.69;99013.03;7397260;19;1578;-43
2023/03/27 10:50:27;;;;;;;;;;;;;;;18.71;63.66;98994.66;7397400;19;1844;-44
2023/03/27 10:53:01;;;;;;;;;;;;;;;18.72;63.76;98996.31;7397271;19;1885;-43
2023/03/27 10:55:47;;;;;;;;;;;;;;;18.79;63.39;98991.94;7398481;19;1477;-43
2023/03/27 10:58:22;;;;;;;;;;;;;;;18.68;63.79;98975.28;7396985;19;985;-43
2023/03/27 11:00:57;;;;;;;;;;;;;;;18.66;64.18;98979.13;7398825;19;970;-46
2023/03/27 11:03:32;;;;;;;;;;;;;;;18.62;64.41;98977.81;7402098;19;1466;-44
2023/03/27 11:06:02;;;;;;;;;;;;;;;18.62;64.20;98973.31;7397328;19;1686;-44
2023/03/27 11:08:35;;;;;;;;;;;;;;;18.60;64.34;98980.69;7400777;19;1521;-44
2023/03/27 11:11:07;;;;;;;;;;;;;;;18.60;64.41;98969.13;7399965;19;1853;-44
2023/03/27 11:13:39;;;;;;;;;;;;;;;18.55;64.68;98980.38;7399661;19;1608;-44
2023/03/27 11:16:17;;;;;;;;;;;;;;;18.53;64.26;98971.69;7399742;19;1805;-44
2023/03/27 11:18:48;;;;;;;;;;;;;;;18.54;64.16;98962.63;7398943;19;1594;-44
2023/03/27 11:21:21;;;;;;;;;;;;;;;18.55;63.92;98964.31;7400881;19;1589;-44
2023/03/27 11:23:52;;;;;;;;;;;;;;;18.55;63.79;98953.59;7400504;19;1506;-44
2023/03/27 11:26:25;;;;;;;;;;;;;;;18.58;64.23;98969.31;7400354;19;1636;-44
2023/03/27 11:28:57;;;;;;;;;;;;;;;18.58;64.09;98971.13;7398164;19;1994;-43
2023/03/27 11:31:36;;;;;;;;;;;;;;;18.58;64.28;98974.66;7399918;19;1869;-44
2023/03/27 11:34:07;;;;;;;;;;;;;;;18.57;63.73;98964.97;7399420;19;1647;-44
2023/03/27 11:36:38;;;;;;;;;;;;;;;18.56;63.98;98960.63;7400031;19;1102;-44
2023/03/27 11:39:14;;;;;;;;;;;;;;;18.51;64.31;98968.34;7396442;19;1694;-44
2023/03/27 11:41:52;;;;;;;;;;;;;;;18.50;64.75;98980.03;7397423;19;1079;-44
2023/03/27 11:44:22;;;;;;;;;;;;;;;18.47;64.84;98967.03;7396207;19;1039;-44
2023/03/27 11:46:58;;;;;;;;;;;;;;;18.51;63.91;98994.28;7400101;19;2239;-44
2023/03/27 11:49:39;;;;;;;;;;;;;;;18.43;64.11;98982.59;7398843;19;1558;-44
2023/03/27 11:52:13;;;;;;;;;;;;;;;18.44;63.80;98984.28;7397417;19;1841;-44
2023/03/27 11:54:50;;;;;;;;;;;;;;;18.41;63.77;98973.91;7396886;19;1014;-44
2023/03/27 11:57:22;;;;;;;;;;;;;;;18.45;63.44;98990.47;7401173;19;955;-44
2023/03/27 12:00:15;;;;;;;;;;;;;;;18.42;63.73;98998.81;7407150;19;1986;-44
2023/03/27 12:03:01;;;;;;;;;;;;;;;18.40;62.65;98993.66;7402567;19;1591;-44
2023/03/27 12:05:35;;;;;;;;;;;;;;;18.43;63.52;99017.41;7403199;19;1266;-43
2023/03/27 12:08:10;;;;;;;;;;;;;;;18.38;63.49;99008.22;7406979;19;1717;-43
2023/03/27 12:10:42;;;;;;;;;;;;;;;18.41;64.25;99011.38;7404972;19;1857;-44
2023/03/27 12:13:26;;;;;;;;;;;;;;;18.40;64.20;99014.22;7405204;19;1904;-43
2023/03/27 12:16:05;;;;;;;;;;;;;;;18.34;64.06;99020.28;7403040;19;967;-44
2023/03/27 12:18:40;;;;;;;;;;;;;;;18.33;64.11;99026.66;7404782;19;1710;-44
2023/03/27 12:21:16;;;;;;;;;;;;;;;18.32;64.73;99035.66;7405154;19;1519;-44
2023/03/27 12:23:53;;;;;;;;;;;;;;;18.38;64.13;99019.78;7402987;19;1038;-44
2023/03/27 12:26:33;;;;;;;;;;;;;;;18.42;63.95;99023.78;7403176;19;1123;-44
2023/03/27 12:29:18;;;;;;;;;;;;;;;18.51;63.52;99005.00;7406505;19;1649;-44
2023/03/27 12:31:57;;;;;;;;;;;;;;;18.42;63.98;99007.72;7399820;19;1861;-44
2023/03/27 12:34:32;;;;;;;;;;;;;;;18.40;64.29;99024.94;7401990;19;1099;-44
2023/03/27 12:37:05;;;;;;;;;;;;;;;18.36;64.61;99028.97;7404231;19;1926;-44
2023/03/27 12:39:34;;;;;;;;;;;;;;;18.34;64.78;99030.97;7402546;19;1881;-43
2023/03/27 12:42:14;;;;;;;;;;;;;;;18.34;64.98;99029.13;7402778;19;1083;-44
2023/03/27 12:45:05;;;;;;;;;;;;;;;18.34;65.00;99033.66;7401779;19;1008;-43
2023/03/27 12:47:34;;;;;;;;;;;;;;;18.34;65.05;99037.16;7406252;19;1728;-44
2023/03/27 12:50:03;;;;;;;;;;;;;;;18.35;65.26;99027.31;7401663;19;1311;-44
2023/03/27 12:52:33;;;;;;;;;;;;;;;18.32;65.16;99078.47;7398771;19;1849;-45
2023/03/27 12:55:06;;;;;;;;;;;;;;;18.33;65.39;99077.50;7404848;19;1149;-44
2023/03/27 12:57:43;;;;;;;;;;;;;;;18.29;65.25;99072.47;7406096;19;1937;-44
2023/03/27 13:00:20;;;;;;;;;;;;;;;18.32;65.49;99081.16;7401283;19;1113;-43
2023/03/27 13:03:04;;;;;;;;;;;;;;;18.28;65.12;99073.50;7401158;19;1917;-43
2023/03/27 13:05:39;;;;;;;;;;;;;;;18.32;65.40;99070.47;7401163;19;1050;-44
2023/03/27 13:08:31;;;;;;;;;;;;;;;18.28;65.77;99048.56;7403589;19;1088;-44
2023/03/27 13:11:00;;;;;;;;;;;;;;;18.28;65.61;99038.72;7399150;19;1849;-44
2023/03/27 13:13:45;;;;;;;;;;;;;;;18.27;65.35;99047.72;7405498;19;1069;-44
2023/03/27 13:16:22;;;;;;;;;;;;;;;18.27;65.46;99042.38;7400848;19;1950;-44
2023/03/27 13:19:06;;;;;;;;;;;;;;;18.24;65.73;99040.06;7405450;19;1490;-44
2023/03/27 13:21:41;;;;;;;;;;;;;;;18.26;65.79;99046.06;7400848;19;1618;-43
2023/03/27 13:24:27;;;;;;;;;;;;;;;18.25;65.81;99055.09;7401075;19;1015;-44
2023/03/27 13:27:05;;;;;;;;;;;;;;;18.25;66.09;99060.44;7400432;19;2341;-43